Time;durP1;ratioP1;P1;durP2;ratioP2;P2;SDS_P1;SDS_P2;PMS_P1;PMS_P2;Temp;Humidity;BMP_temperature;BMP_pressure;BME280_temperature;BME280_humidity;BME280_pressure;Samples;Min_cycle;Max_cycle;Signal;HPM_P1;HPM_P2
2022/05/12 00:01:29;;;;;;;4.38;0.70;;;12.20;99.90;;;;;;5082553;28;20200;-50
2022/05/12 00:03:55;;;;;;;5.20;0.90;;;12.20;99.90;;;;;;5078994;28;20044;-50
2022/05/12 00:06:21;;;;;;;4.68;0.82;;;12.20;99.90;;;;;;5079069;28;20029;-49
2022/05/12 00:08:46;;;;;;;4.00;0.70;;;12.10;99.90;;;;;;5070640;28;20031;-50
2022/05/12 00:11:12;;;;;;;5.53;1.02;;;12.10;99.90;;;;;;5073756;28;20528;-48
2022/05/12 00:13:37;;;;;;;3.05;0.90;;;12.10;99.90;;;;;;5070913;28;20032;-49
2022/05/12 00:16:03;;;;;;;5.70;1.00;;;12.10;99.90;;;;;;5069105;28;20067;-49
2022/05/12 00:18:29;;;;;;;3.38;0.70;;;12.10;99.90;;;;;;5068617;28;20279;-50
2022/05/12 00:20:55;;;;;;;6.43;0.60;;;12.00;99.90;;;;;;5073480;28;20040;-52
2022/05/12 00:23:24;;;;;;;4.55;0.70;;;12.00;99.90;;;;;;5070958;28;20116;-52
2022/05/12 00:25:50;;;;;;;6.38;0.80;;;12.00;99.90;;;;;;5053453;28;20028;-50
2022/05/12 00:28:17;;;;;;;;;;;12.00;99.90;;;;;;5075690;28;20043;-50
2022/05/12 00:30:44;;;;;;;4.70;0.80;;;12.00;99.90;;;;;;5069456;28;19955;-53
2022/05/12 00:33:10;;;;;;;3.95;0.68;;;11.90;99.90;;;;;;5073657;28;20512;-49
2022/05/12 00:35:36;;;;;;;5.53;0.80;;;11.90;99.90;;;;;;5072142;28;20049;-52
2022/05/12 00:38:03;;;;;;;5.43;0.77;;;11.80;99.90;;;;;;5073108;28;20075;-49
2022/05/12 00:40:28;;;;;;;;;;;11.80;99.90;;;;;;5073327;28;20090;-50
2022/05/12 00:43:00;;;;;;;4.30;1.23;;;11.70;99.90;;;;;;5073508;28;19966;-49
2022/05/12 00:45:28;;;;;;;5.43;0.63;;;11.70;99.90;;;;;;5072682;28;20047;-50
2022/05/12 00:47:55;;;;;;;1.10;0.60;;;11.70;99.90;;;;;;5077927;28;20067;-50
2022/05/12 00:50:24;;;;;;;2.88;0.60;;;11.70;99.90;;;;;;5078232;28;20048;-49
2022/05/12 00:52:50;;;;;;;1.63;0.90;;;11.60;99.90;;;;;;5073372;28;20052;-53
2022/05/12 00:55:25;;;;;;;7.68;1.15;;;11.60;99.90;;;;;;5072909;28;20421;-49
2022/05/12 00:57:55;;;;;;;6.72;0.90;;;11.60;99.90;;;;;;5084468;28;20435;-50
2022/05/12 01:00:23;;;;;;;3.72;0.57;;;11.60;99.90;;;;;;5076689;28;20036;-49
2022/05/12 01:02:53;;;;;;;5.20;0.60;;;11.60;99.90;;;;;;5072763;28;20084;-50
2022/05/12 01:05:21;;;;;;;5.18;1.00;;;11.50;99.90;;;;;;5075128;28;20064;-50
2022/05/12 01:07:47;;;;;;;3.90;0.90;;;11.50;99.90;;;;;;5072946;28;20044;-51
2022/05/12 01:10:13;;;;;;;6.43;0.70;;;11.50;99.90;;;;;;5076175;28;20055;-51
2022/05/12 01:12:42;;;;;;;7.22;0.90;;;11.40;99.90;;;;;;5072756;28;20041;-53
2022/05/12 01:15:09;;;;;;;2.45;0.77;;;11.40;99.90;;;;;;5074853;28;20076;-49
2022/05/12 01:17:34;;;;;;;3.00;0.60;;;11.30;99.90;;;;;;5072881;28;20060;-52
2022/05/12 01:20:00;;;;;;;4.53;1.23;;;11.30;99.90;;;;;;5075272;28;20044;-50
2022/05/12 01:22:53;;;;;;;3.38;0.50;;;11.30;99.90;;;;;;5073685;28;20891;-50
2022/05/12 01:25:22;;;;;;;4.25;0.80;;;11.20;99.90;;;;;;5066678;28;20055;-50
2022/05/12 01:27:48;;;;;;;7.00;0.80;;;11.10;99.90;;;;;;5071976;28;20041;-49
2022/05/12 01:30:19;;;;;;;2.72;0.50;;;11.10;99.90;;;;;;5073740;28;20123;-50
2022/05/12 01:32:47;;;;;;;5.53;0.80;;;11.10;99.90;;;;;;5074756;28;20032;-49
2022/05/12 01:35:14;;;;;;;4.13;0.60;;;11.00;99.90;;;;;;5071201;28;20167;-49
2022/05/12 01:37:41;;;;;;;1.95;0.50;;;11.00;99.90;;;;;;5071955;28;20052;-50
2022/05/12 01:40:08;;;;;;;1.42;0.55;;;11.00;99.90;;;;;;5072734;28;20462;-50
2022/05/12 01:42:34;;;;;;;3.60;0.73;;;10.90;99.90;;;;;;5072457;28;20098;-52
2022/05/12 01:44:59;;;;;;;1.23;0.43;;;10.90;99.90;;;;;;5070434;28;20032;-50
2022/05/12 01:47:25;;;;;;;2.77;0.67;;;10.80;99.90;;;;;;5072221;28;20036;-49
2022/05/12 01:49:50;;;;;;;4.90;0.60;;;10.80;99.90;;;;;;5075952;28;20602;-51
2022/05/12 01:52:16;;;;;;;1.97;0.70;;;10.80;99.90;;;;;;5074841;28;20444;-49
2022/05/12 01:54:42;;;;;;;3.50;0.50;;;10.70;99.90;;;;;;5079010;28;20497;-50
2022/05/12 01:57:08;;;;;;;3.28;0.82;;;10.70;99.90;;;;;;5075908;28;20290;-52
2022/05/12 01:59:34;;;;;;;1.00;0.65;;;10.70;99.90;;;;;;5083766;28;20485;-49
2022/05/12 02:01:59;;;;;;;5.80;0.60;;;10.70;99.90;;;;;;5072170;28;20035;-50
2022/05/12 02:04:25;;;;;;;4.33;0.70;;;10.70;99.90;;;;;;5072665;28;20068;-55
2022/05/12 02:06:50;;;;;;;1.10;0.50;;;10.60;99.90;;;;;;5071118;28;20047;-49
2022/05/12 02:09:19;;;;;;;2.90;0.83;;;10.60;99.90;;;;;;5073938;28;20044;-49
2022/05/12 02:11:44;;;;;;;3.78;0.70;;;10.60;99.90;;;;;;5074185;28;20112;-53
2022/05/12 02:14:10;;;;;;;4.87;0.70;;;10.50;99.90;;;;;;5078370;28;20106;-52
2022/05/12 02:16:36;;;;;;;2.75;0.60;;;10.50;99.90;;;;;;5074081;28;20051;-49
2022/05/12 02:19:05;;;;;;;6.32;0.98;;;10.50;99.90;;;;;;5073624;28;20040;-52
2022/05/12 02:21:31;;;;;;;7.60;1.35;;;10.50;99.90;;;;;;5076016;28;20510;-50
2022/05/12 02:23:56;;;;;;;6.63;1.25;;;10.50;99.90;;;;;;5076159;28;20062;-51
2022/05/12 02:26:23;;;;;;;4.95;0.70;;;10.50;99.90;;;;;;5071563;28;20040;-51
2022/05/12 02:28:48;;;;;;;3.92;1.10;;;10.50;99.90;;;;;;5073707;28;20037;-53
2022/05/12 02:31:14;;;;;;;1.50;0.70;;;10.50;99.90;;;;;;5075057;28;20080;-50
2022/05/12 02:33:39;;;;;;;3.75;1.33;;;10.50;99.90;;;;;;5071491;28;20036;-49
2022/05/12 02:36:05;;;;;;;2.60;0.95;;;10.40;99.90;;;;;;5072770;28;20175;-50
2022/05/12 02:38:31;;;;;;;3.53;1.08;;;10.40;99.90;;;;;;5075876;28;20035;-50
2022/05/12 02:40:57;;;;;;;2.53;1.00;;;10.40;99.90;;;;;;5083288;28;20460;-53
2022/05/12 02:43:25;;;;;;;4.70;0.90;;;10.40;99.90;;;;;;5072280;28;20037;-49
2022/05/12 02:45:58;;;;;;;3.03;1.10;;;10.40;99.90;;;;;;5083978;28;20037;-54
2022/05/12 02:48:31;;;;;;;3.83;0.80;;;10.40;99.90;;;;;;5071978;28;20036;-51
2022/05/12 02:50:57;;;;;;;4.07;1.05;;;10.30;99.90;;;;;;5084739;28;20440;-49
2022/05/12 02:53:24;;;;;;;4.05;1.55;;;10.30;99.90;;;;;;5075501;28;20678;-50
2022/05/12 02:55:50;;;;;;;5.07;1.40;;;10.30;99.90;;;;;;5069161;28;20094;-49
2022/05/12 02:58:16;;;;;;;4.70;1.50;;;10.30;99.90;;;;;;5074206;28;20040;-50
2022/05/12 03:00:42;;;;;;;6.57;1.02;;;10.30;99.90;;;;;;5070784;28;20502;-51
2022/05/12 03:03:08;;;;;;;;;;;10.30;99.90;;;;;;5071357;28;20489;-50
2022/05/12 03:05:35;;;;;;;5.60;1.63;;;10.30;99.90;;;;;;5070016;28;19916;-52
2022/05/12 03:08:01;;;;;;;4.50;1.40;;;10.40;99.90;;;;;;5066970;28;20036;-49
2022/05/12 03:10:27;;;;;;;2.53;1.27;;;10.30;99.90;;;;;;5070774;28;20098;-49
2022/05/12 03:12:53;;;;;;;3.88;1.60;;;10.30;99.90;;;;;;5084639;28;20737;-51
2022/05/12 03:15:19;;;;;;;5.28;1.60;;;10.30;99.90;;;;;;5082033;28;20045;-52
2022/05/12 03:17:45;;;;;;;;;;;10.30;99.90;;;;;;5069825;28;20083;-51
2022/05/12 03:20:15;;;;;;;3.05;1.00;;;10.30;99.90;;;;;;5073849;28;19976;-52
2022/05/12 03:22:41;;;;;;;2.70;1.42;;;10.20;99.90;;;;;;5078329;28;20069;-52
2022/05/12 03:25:10;;;;;;;5.15;1.40;;;10.20;99.90;;;;;;5088368;28;20036;-49
2022/05/12 03:27:36;;;;;;;5.45;1.63;;;10.20;99.90;;;;;;5082904;28;20112;-50
2022/05/12 03:30:03;;;;;;;3.25;1.42;;;10.20;99.90;;;;;;5088686;28;20111;-50
2022/05/12 03:32:30;;;;;;;5.80;1.83;;;10.20;99.90;;;;;;5073441;28;20090;-52
2022/05/12 03:34:56;;;;;;;4.13;1.50;;;10.20;99.90;;;;;;5069462;28;20102;-53
2022/05/12 03:37:21;;;;;;;5.53;1.58;;;10.20;99.90;;;;;;5069981;28;20048;-49
2022/05/12 03:39:47;;;;;;;4.85;1.42;;;10.20;99.90;;;;;;5073447;28;20411;-50
2022/05/12 03:42:15;;;;;;;5.23;1.50;;;10.20;99.90;;;;;;5071605;28;20045;-49
2022/05/12 03:44:46;;;;;;;4.05;1.38;;;10.20;99.90;;;;;;5078430;28;20070;-50
2022/05/12 03:47:24;;;;;;;6.70;1.52;;;10.20;99.90;;;;;;5079840;28;20481;-50
2022/05/12 03:49:57;;;;;;;7.95;1.60;;;10.20;99.90;;;;;;5073623;28;20044;-50
2022/05/12 03:52:23;;;;;;;8.60;2.10;;;10.20;99.90;;;;;;5068741;28;20565;-49
2022/05/12 03:54:49;;;;;;;5.95;1.58;;;10.20;99.90;;;;;;5079810;28;20048;-51
2022/05/12 03:57:15;;;;;;;7.10;2.33;;;10.30;99.90;;;;;;5083500;28;20067;-52
2022/05/12 03:59:42;;;;;;;9.25;1.60;;;10.30;99.90;;;;;;5087943;28;20410;-49
2022/05/12 04:02:12;;;;;;;5.80;1.90;;;10.30;99.90;;;;;;5085154;28;20032;-52
2022/05/12 04:04:38;;;;;;;6.88;1.80;;;10.30;99.90;;;;;;5087443;28;20504;-49
2022/05/12 04:07:04;;;;;;;4.83;1.97;;;10.30;99.90;;;;;;5074819;28;20036;-50
2022/05/12 04:09:29;;;;;;;6.60;1.60;;;10.30;99.90;;;;;;5073025;28;20036;-50
2022/05/12 04:11:55;;;;;;;6.72;1.92;;;10.30;99.90;;;;;;5083625;28;20300;-52
2022/05/12 04:14:21;;;;;;;4.10;1.73;;;10.30;99.90;;;;;;5080488;28;20071;-49
2022/05/12 04:16:47;;;;;;;6.28;1.92;;;10.40;99.90;;;;;;5089619;28;20405;-49
2022/05/12 04:19:14;;;;;;;7.68;2.17;;;10.40;99.90;;;;;;5078125;28;20040;-49
2022/05/12 04:21:40;;;;;;;11.43;2.50;;;10.40;99.90;;;;;;5089186;28;20391;-50
2022/05/12 04:24:06;;;;;;;;;;;10.40;99.90;;;;;;5070881;28;20371;-52
2022/05/12 04:26:33;;;;;;;10.00;2.50;;;10.40;99.90;;;;;;5072309;28;19926;-51
2022/05/12 04:28:59;;;;;;;10.52;2.83;;;10.40;99.90;;;;;;5069824;28;20029;-49
2022/05/12 04:31:24;;;;;;;10.33;3.67;;;10.40;99.90;;;;;;5073471;28;20052;-51
2022/05/12 04:36:36;;;;;;;12.98;4.00;;;10.40;99.90;;;;;;5069095;28;20056;-51
2022/05/12 04:39:03;;;;;;;11.10;4.47;;;10.40;99.90;;;;;;5073623;28;20047;-49
2022/05/12 04:41:29;;;;;;;9.02;5.38;;;10.40;99.90;;;;;;5082917;28;20405;-53
2022/05/12 04:43:55;;;;;;;9.10;4.45;;;10.50;99.90;;;;;;5069666;28;20513;-52
2022/05/12 04:46:20;;;;;;;13.23;4.63;;;10.50;99.90;;;;;;5072440;28;20254;-49
2022/05/12 04:48:46;;;;;;;12.50;4.13;;;10.60;99.90;;;;;;5071889;28;20029;-49
2022/05/12 04:51:11;;;;;;;9.93;4.73;;;10.60;99.90;;;;;;5071513;28;20359;-50
2022/05/12 04:53:38;;;;;;;14.43;5.00;;;10.60;99.90;;;;;;5069222;28;20170;-50
2022/05/12 04:56:03;;;;;;;10.48;4.88;;;10.60;99.90;;;;;;5081729;28;20332;-52
2022/05/12 04:58:29;;;;;;;9.50;4.97;;;10.70;99.90;;;;;;5072183;28;20032;-50
2022/05/12 05:00:55;;;;;;;12.37;6.17;;;10.70;99.90;;;;;;5075326;28;20044;-49
2022/05/12 05:03:21;;;;;;;13.65;6.30;;;10.80;99.90;;;;;;5070342;28;20039;-49
2022/05/12 05:05:48;;;;;;;10.43;5.55;;;10.90;99.90;;;;;;5079342;28;20036;-50
2022/05/12 05:08:16;;;;;;;12.20;5.90;;;10.90;99.90;;;;;;5072327;28;20391;-50
2022/05/12 05:10:41;;;;;;;12.50;5.10;;;11.00;99.90;;;;;;5068778;28;20032;-51
2022/05/12 05:13:07;;;;;;;15.55;6.07;;;11.00;99.90;;;;;;5077379;28;20028;-49
2022/05/12 05:15:34;;;;;;;18.98;6.75;;;11.10;99.90;;;;;;5082919;28;20048;-49
2022/05/12 05:18:00;;;;;;;14.27;5.70;;;11.20;99.90;;;;;;5068347;28;20052;-49
2022/05/12 05:20:28;;;;;;;12.23;5.85;;;11.20;99.90;;;;;;5075356;28;20048;-49
2022/05/12 05:22:54;;;;;;;13.90;4.60;;;11.20;99.90;;;;;;5071711;28;20051;-51
2022/05/12 05:25:21;;;;;;;10.65;4.70;;;11.20;99.90;;;;;;5075814;28;20032;-49
2022/05/12 05:27:48;;;;;;;9.88;5.28;;;11.20;99.90;;;;;;5072626;28;20479;-52
2022/05/12 05:30:17;;;;;;;10.68;5.40;;;11.30;99.90;;;;;;5087531;28;20074;-49
2022/05/12 05:32:42;;;;;;;8.90;5.07;;;11.30;99.90;;;;;;5074686;28;20443;-49
2022/05/12 05:35:09;;;;;;;10.98;5.85;;;11.30;99.90;;;;;;5075237;28;20044;-52
2022/05/12 05:37:34;;;;;;;13.65;6.65;;;11.40;99.90;;;;;;5071877;28;20043;-51
2022/05/12 05:40:01;;;;;;;16.27;6.40;;;11.50;99.90;;;;;;5084292;28;20044;-50
2022/05/12 05:42:27;;;;;;;17.05;6.60;;;11.60;99.90;;;;;;5086787;28;20135;-50
2022/05/12 05:44:52;;;;;;;15.40;6.53;;;11.80;99.90;;;;;;5070478;28;20553;-52
2022/05/12 05:47:19;;;;;;;17.40;6.33;;;11.80;99.90;;;;;;5075372;28;20036;-50
2022/05/12 05:49:45;;;;;;;12.05;6.13;;;12.00;99.90;;;;;;5077262;28;20290;-50
2022/05/12 05:54:54;;;;;;;13.57;5.95;;;12.20;99.90;;;;;;5085530;28;20043;-52
2022/05/12 05:57:24;;;;;;;11.48;6.55;;;12.30;99.90;;;;;;5087909;28;20505;-49
2022/05/12 05:59:51;;;;;;;11.15;5.97;;;12.40;99.90;;;;;;5084655;28;20129;-50
2022/05/12 06:02:17;;;;;;;8.45;5.70;;;12.40;99.90;;;;;;5074140;28;20048;-51
2022/05/12 06:04:43;;;;;;;12.23;6.85;;;12.50;99.90;;;;;;5071263;28;20048;-53
2022/05/12 06:07:08;;;;;;;15.35;7.00;;;12.60;99.90;;;;;;5076642;28;20042;-49
2022/05/12 06:09:34;;;;;;;17.53;7.10;;;12.60;99.90;;;;;;5070789;28;20032;-49
2022/05/12 06:12:01;;;;;;;19.83;8.18;;;12.70;99.90;;;;;;5071704;28;20321;-50
2022/05/12 06:14:26;;;;;;;13.33;7.17;;;12.70;99.90;;;;;;5072865;28;20115;-49
2022/05/12 06:16:52;;;;;;;12.93;7.65;;;12.80;99.90;;;;;;5073786;28;20049;-50
2022/05/12 06:19:18;;;;;;;15.38;7.78;;;12.90;99.90;;;;;;5074307;28;20094;-50
2022/05/12 06:21:43;;;;;;;14.45;7.43;;;12.90;99.90;;;;;;5081612;28;20032;-53
2022/05/12 06:24:09;;;;;;;18.25;7.07;;;12.90;99.90;;;;;;5077417;28;20033;-49
2022/05/12 06:26:35;;;;;;;12.15;7.40;;;13.00;99.90;;;;;;5077755;28;20071;-49
2022/05/12 06:29:00;;;;;;;18.33;7.60;;;13.10;99.90;;;;;;5084011;28;20054;-49
2022/05/12 06:31:29;;;;;;;11.07;6.23;;;13.20;99.90;;;;;;5074231;28;20637;-53
2022/05/12 06:33:56;;;;;;;19.48;8.13;;;13.30;99.90;;;;;;5075403;28;20500;-49
2022/05/12 06:36:22;;;;;;;17.80;7.68;;;13.40;99.90;;;;;;5071158;28;20410;-52
2022/05/12 06:38:48;;;;;;;14.45;7.80;;;13.50;99.90;;;;;;5072660;28;20045;-52
2022/05/12 06:41:14;;;;;;;13.40;7.35;;;13.60;99.90;;;;;;5074975;28;20042;-53
2022/05/12 06:43:45;;;;;;;13.80;6.00;;;13.70;99.90;;;;;;5074338;28;20032;-51
2022/05/12 06:46:11;;;;;;;12.82;5.65;;;13.70;99.90;;;;;;5069611;28;20032;-53
2022/05/12 06:48:37;;;;;;;;;;;13.80;99.90;;;;;;5071002;28;20045;-51
2022/05/12 06:51:02;;;;;;;8.13;5.32;;;13.90;99.90;;;;;;5070968;28;19920;-51
2022/05/12 06:53:28;;;;;;;11.75;5.68;;;14.00;99.90;;;;;;5090892;28;20405;-50
2022/05/12 06:55:53;;;;;;;12.27;6.18;;;14.10;99.90;;;;;;5073828;28;20040;-50
2022/05/12 06:58:19;;;;;;;10.97;5.97;;;14.10;99.90;;;;;;5073126;28;20105;-52
2022/05/12 07:00:45;;;;;;;13.32;5.10;;;14.20;99.90;;;;;;5071841;28;20783;-52
2022/05/12 07:03:12;;;;;;;;;;;14.20;99.90;;;;;;5063754;28;20041;-52
2022/05/12 07:05:39;;;;;;;15.75;6.30;;;14.30;99.90;;;;;;5081175;28;20280;-50
2022/05/12 07:08:06;;;;;;;7.93;4.47;;;14.40;99.90;;;;;;5074337;28;20539;-52
2022/05/12 07:10:32;;;;;;;11.25;4.72;;;14.50;99.90;;;;;;5072037;28;20068;-50
2022/05/12 07:12:58;;;;;;;8.23;4.35;;;14.50;99.90;;;;;;5071310;28;20055;-50
2022/05/12 07:15:27;;;;;;;12.50;4.43;;;14.60;99.90;;;;;;5070480;28;20044;-50
2022/05/12 07:17:55;;;;;;;8.95;4.63;;;14.70;99.90;;;;;;5070133;28;20059;-49
2022/05/12 07:28:36;;;;;;;9.15;3.92;;;15.00;99.90;;;;;;5057908;28;20032;-50
2022/05/12 07:31:05;;;;;;;9.20;4.10;;;15.10;99.90;;;;;;5086734;28;20071;-50
2022/05/12 07:33:52;;;;;;;14.18;4.03;;;15.10;99.90;;;;;;5070077;28;20515;-52
2022/05/12 07:36:21;;;;;;;9.57;3.78;;;15.30;99.90;;;;;;5075267;28;20060;-53
2022/05/12 07:38:47;;;;;;;6.90;3.80;;;15.30;99.90;;;;;;5073563;28;20032;-49
2022/05/12 07:41:14;;;;;;;8.52;3.78;;;15.40;99.90;;;;;;5083284;28;20032;-49
2022/05/12 07:43:41;;;;;;;9.57;3.92;;;15.40;99.90;;;;;;5073678;28;20183;-50
2022/05/12 07:46:07;;;;;;;9.40;2.90;;;15.50;99.90;;;;;;5068368;28;20036;-51
2022/05/12 07:48:33;;;;;;;5.57;3.72;;;15.50;99.90;;;;;;5070673;28;20137;-51
2022/05/12 07:50:59;;;;;;;11.35;4.68;;;15.50;99.90;;;;;;5070818;28;20047;-52
2022/05/12 07:53:25;;;;;;;5.75;3.70;;;15.50;99.90;;;;;;5090294;28;20039;-50
2022/05/12 07:55:51;;;;;;;;;;;15.60;99.90;;;;;;5078745;28;20107;-50
2022/05/12 07:58:17;;;;;;;6.85;4.70;;;15.60;99.90;;;;;;5084842;28;20403;-52
2022/05/12 08:00:43;;;;;;;;;;;15.70;99.90;;;;;;5089292;28;20044;-52
2022/05/12 08:03:09;;;;;;;9.05;3.58;;;15.70;99.90;;;;;;5071761;28;19923;-53
2022/05/12 08:05:36;;;;;;;6.22;3.28;;;15.70;99.90;;;;;;5072823;28;20041;-50
2022/05/12 08:08:04;;;;;;;8.75;3.55;;;15.70;99.90;;;;;;5068241;28;20046;-50
2022/05/12 08:10:29;;;;;;;8.32;3.60;;;15.70;99.90;;;;;;5071146;28;20068;-50
2022/05/12 08:12:56;;;;;;;8.70;3.75;;;15.80;99.90;;;;;;5064924;28;20138;-51
2022/05/12 08:15:24;;;;;;;8.48;2.90;;;15.80;99.90;;;;;;5056922;28;20048;-50
2022/05/12 08:17:51;;;;;;;3.97;2.25;;;15.80;99.90;;;;;;5059028;28;20124;-52
2022/05/12 08:20:16;;;;;;;5.07;1.90;;;15.90;99.90;;;;;;5054595;28;20045;-49
2022/05/12 08:22:42;;;;;;;9.07;2.88;;;16.00;99.90;;;;;;5052906;28;20047;-50
2022/05/12 08:25:08;;;;;;;6.20;2.90;;;16.10;99.90;;;;;;5054258;28;20037;-49
2022/05/12 08:27:35;;;;;;;4.75;2.35;;;16.20;99.90;;;;;;5054740;28;20749;-52
2022/05/12 08:30:00;;;;;;;7.88;2.05;;;16.30;99.90;;;;;;5054461;28;20127;-50
2022/05/12 08:32:26;;;;;;;5.88;2.95;;;16.40;99.90;;;;;;5057776;28;20178;-53
2022/05/12 08:34:51;;;;;;;4.65;2.25;;;16.40;99.20;;;;;;5057487;28;20048;-53
2022/05/12 08:37:18;;;;;;;4.20;2.00;;;16.40;99.30;;;;;;5067608;28;20037;-49
2022/05/12 08:39:45;;;;;;;8.25;1.92;;;16.50;99.20;;;;;;5090102;28;20054;-51
2022/05/12 08:42:30;;;;;;;6.47;2.50;;;16.60;99.10;;;;;;5053393;28;20041;-50
2022/05/12 08:44:59;;;;;;;4.38;1.13;;;16.70;99.00;;;;;;5047798;28;20083;-54
2022/05/12 08:47:28;;;;;;;3.55;1.00;;;16.70;97.80;;;;;;5047812;28;20101;-53
2022/05/12 08:49:54;;;;;;;7.55;2.15;;;16.70;97.30;;;;;;5053926;28;20119;-50
2022/05/12 08:52:38;;;;;;;4.82;1.60;;;16.80;97.60;;;;;;5049184;28;20052;-52
2022/05/12 08:55:29;;;;;;;5.95;2.33;;;16.90;97.60;;;;;;5055139;28;20040;-49
2022/05/12 08:58:37;;;;;;;8.73;1.33;;;16.90;96.10;;;;;;5052107;28;20040;-50
2022/05/12 09:01:06;;;;;;;4.50;1.48;;;16.90;95.80;;;;;;5031526;28;20153;-50
2022/05/12 09:03:53;;;;;;;8.13;1.80;;;16.80;95.60;;;;;;5056853;28;20141;-49
2022/05/12 09:06:20;;;;;;;3.38;0.88;;;16.60;95.00;;;;;;5060611;28;20044;-52
2022/05/12 09:09:09;;;;;;;3.67;1.30;;;16.70;95.60;;;;;;5055037;28;20037;-49
2022/05/12 09:11:46;;;;;;;7.07;1.67;;;16.80;95.00;;;;;;5051867;28;20494;-49
2022/05/12 09:14:19;;;;;;;3.92;1.00;;;17.00;95.20;;;;;;5051770;28;20029;-50
2022/05/12 09:16:51;;;;;;;5.85;1.25;;;17.10;94.20;;;;;;5057512;28;20075;-49
2022/05/12 09:19:19;;;;;;;3.92;1.02;;;17.20;93.00;;;;;;5051405;28;20040;-53
2022/05/12 09:21:45;;;;;;;4.93;1.45;;;17.30;92.30;;;;;;5061431;28;20418;-53
2022/05/12 09:24:11;;;;;;;4.90;0.80;;;17.40;93.60;;;;;;5055172;28;20033;-50
2022/05/12 09:26:44;;;;;;;4.75;1.13;;;17.50;93.70;;;;;;5055122;28;20041;-52
2022/05/12 09:29:12;;;;;;;2.92;1.08;;;17.60;92.60;;;;;;5059099;28;20044;-52
2022/05/12 09:31:39;;;;;;;8.35;1.33;;;17.80;92.80;;;;;;5058485;28;20039;-50
2022/05/12 09:34:14;;;;;;;5.22;1.38;;;17.80;91.80;;;;;;5051939;28;20494;-54
2022/05/12 09:36:40;;;;;;;5.30;1.17;;;17.80;91.30;;;;;;5062337;28;20037;-49
2022/05/12 09:39:05;;;;;;;10.95;1.10;;;17.80;92.50;;;;;;5055621;28;20037;-53
2022/05/12 09:41:31;;;;;;;5.78;1.05;;;17.90;91.80;;;;;;5055710;28;20750;-51
2022/05/12 09:43:57;;;;;;;5.65;1.52;;;17.80;92.20;;;;;;5053630;28;20044;-51
2022/05/12 09:46:29;;;;;;;7.03;2.17;;;17.80;91.50;;;;;;5059416;28;20036;-49
2022/05/12 09:49:14;;;;;;;2.75;1.23;;;17.70;91.90;;;;;;5059835;28;20051;-49
2022/05/12 09:51:40;;;;;;;3.50;0.95;;;17.80;92.10;;;;;;5051567;28;20041;-54
2022/05/12 09:54:15;;;;;;;;;;;17.80;90.70;;;;;;5053989;28;20486;-50
2022/05/12 09:56:46;;;;;;;1.58;0.80;;;17.80;90.60;;;;;;5054181;28;19924;-49
2022/05/12 09:59:14;;;;;;;3.80;1.30;;;17.80;91.40;;;;;;5053717;28;20092;-52
2022/05/12 10:02:06;;;;;;;4.22;1.02;;;17.60;91.10;;;;;;5054975;28;20490;-53
2022/05/12 10:10:23;;;;;;;3.85;0.85;;;17.50;91.00;;;;;;5054283;28;20045;-49
2022/05/12 10:13:04;;;;;;;10.30;1.67;;;17.60;91.20;;;;;;5055141;28;20044;-51
2022/05/12 10:15:35;;;;;;;4.10;0.50;;;17.80;91.40;;;;;;5053985;28;20097;-50
2022/05/12 10:18:10;;;;;;;2.42;0.60;;;17.90;90.20;;;;;;5051393;28;20037;-50
2022/05/12 10:20:43;;;;;;;5.03;1.05;;;18.00;89.90;;;;;;5050817;28;20048;-49
2022/05/12 10:23:22;;;;;;;3.42;0.70;;;18.20;90.20;;;;;;5069795;28;20155;-51
2022/05/12 10:25:57;;;;;;;2.58;0.70;;;18.30;88.60;;;;;;5069855;28;20485;-50
2022/05/12 10:28:45;;;;;;;3.70;0.90;;;18.40;86.20;;;;;;5070565;28;20051;-52
2022/05/12 10:31:33;;;;;;;1.63;0.95;;;18.50;85.90;;;;;;5070522;28;20082;-53
2022/05/12 10:34:27;;;;;;;2.90;0.70;;;18.50;85.10;;;;;;5071639;28;20044;-52
2022/05/12 10:37:30;;;;;;;4.80;1.25;;;18.50;85.40;;;;;;5070756;28;20138;-50
2022/05/12 10:40:22;;;;;;;1.73;0.60;;;18.60;85.40;;;;;;5070678;28;20043;-52
2022/05/12 10:43:10;;;;;;;4.45;0.98;;;18.70;84.00;;;;;;5071485;28;20086;-50
2022/05/12 10:45:39;;;;;;;;;;;18.80;85.00;;;;;;5070752;28;20440;-51
2022/05/12 10:48:32;;;;;;;4.03;0.50;;;18.80;82.70;;;;;;5070657;28;19939;-50
2022/05/12 10:51:02;;;;;;;3.28;0.95;;;18.80;83.50;;;;;;5071097;28;20041;-50
2022/05/12 10:53:49;;;;;;;4.03;0.63;;;18.90;86.00;;;;;;5071153;28;20044;-51
2022/05/12 10:56:26;;;;;;;4.40;0.93;;;19.00;85.60;;;;;;5069231;28;20181;-50
2022/05/12 10:59:10;;;;;;;1.58;0.60;;;19.20;84.80;;;;;;5081677;28;20520;-53
2022/05/12 11:01:43;;;;;;;3.35;0.68;;;19.10;81.10;;;;;;5067307;28;20040;-51
2022/05/12 11:04:12;;;;;;;3.88;0.70;;;19.00;81.40;;;;;;5073180;28;20425;-50
2022/05/12 11:06:41;;;;;;;3.65;0.68;;;19.10;82.40;;;;;;5069816;28;20072;-54
2022/05/12 11:09:13;;;;;;;2.85;0.75;;;19.20;81.10;;;;;;5078126;28;20036;-50
2022/05/12 11:11:45;;;;;;;3.30;0.63;;;19.20;80.40;;;;;;5070607;28;20045;-51
2022/05/12 11:14:36;;;;;;;3.25;0.60;;;19.20;77.40;;;;;;5071671;28;20040;-51
2022/05/12 11:17:37;;;;;;;4.45;0.60;;;19.20;77.90;;;;;;5056446;28;20127;-53
2022/05/12 11:20:23;;;;;;;2.70;0.52;;;19.10;77.50;;;;;;5071409;28;20047;-53
2022/05/12 11:23:36;;;;;;;3.00;0.50;;;19.00;78.40;;;;;;5074186;28;20434;-51
2022/05/12 11:26:13;;;;;;;2.28;0.80;;;18.70;75.70;;;;;;5039597;28;20052;-50
2022/05/12 11:31:50;;;;;;;6.40;0.77;;;18.50;78.40;;;;;;5027361;28;20065;-50
2022/05/12 11:34:20;;;;;;;3.65;0.70;;;18.70;78.60;;;;;;5027615;28;20481;-50
2022/05/12 11:36:51;;;;;;;3.05;0.75;;;18.90;78.30;;;;;;5040900;28;20131;-51
2022/05/12 11:39:51;;;;;;;1.90;0.85;;;19.10;77.10;;;;;;5034549;28;20037;-54
2022/05/12 11:44:23;;;;;;;6.70;1.02;;;19.20;77.90;;;;;;5023599;28;20056;-50
2022/05/12 11:45:37;;;;;;;2.03;0.60;;;19.30;76.40;;;;;;5027604;28;20481;-50
2022/05/12 11:48:12;;;;;;;2.60;0.73;;;19.50;76.00;;;;;;5037835;28;20459;-54
2022/05/12 11:50:45;;;;;;;1.60;0.55;;;19.70;74.70;;;;;;5042614;28;20043;-53
2022/05/12 11:53:21;;;;;;;2.30;0.77;;;19.70;74.50;;;;;;5039749;28;20535;-50
2022/05/12 11:56:04;;;;;;;5.03;0.63;;;19.70;74.70;;;;;;5025587;28;20052;-50
2022/05/12 11:58:40;;;;;;;4.13;0.70;;;19.60;72.20;;;;;;5025825;28;20041;-51
2022/05/12 12:01:09;;;;;;;3.17;0.88;;;19.70;73.50;;;;;;5031996;28;20049;-53
2022/05/12 12:03:44;;;;;;;5.30;0.50;;;19.60;73.40;;;;;;5056836;28;20101;-53
2022/05/12 12:06:10;;;;;;;2.93;0.60;;;19.60;72.70;;;;;;5069397;28;20486;-54
2022/05/12 12:08:38;;;;;;;1.50;0.52;;;19.50;71.60;;;;;;5072647;28;20290;-53
2022/05/12 12:11:13;;;;;;;8.05;1.35;;;19.50;71.90;;;;;;5073581;28;20044;-51
2022/05/12 12:13:41;;;;;;;5.40;0.77;;;19.50;72.90;;;;;;5065919;28;20083;-53
2022/05/12 12:16:11;;;;;;;7.28;1.80;;;19.50;73.00;;;;;;5081586;28;20036;-53
2022/05/12 12:18:36;;;;;;;4.28;0.93;;;19.60;74.80;;;;;;5076898;28;20037;-53
2022/05/12 12:21:35;;;;;;;7.38;1.30;;;19.60;75.00;;;;;;5069379;28;20048;-53
2022/05/12 12:24:20;;;;;;;5.35;1.08;;;19.80;74.40;;;;;;5057950;28;20037;-53
2022/05/12 12:26:58;;;;;;;7.35;0.70;;;19.80;72.50;;;;;;5071556;28;20036;-51
2022/05/12 12:29:44;;;;;;;2.97;0.40;;;19.90;74.30;;;;;;5076487;28;20036;-50
2022/05/12 12:32:32;;;;;;;3.40;0.70;;;20.00;71.20;;;;;;5087734;28;20041;-50
2022/05/12 12:35:28;;;;;;;5.43;1.38;;;20.00;71.40;;;;;;5075928;28;20033;-51
2022/05/12 12:37:54;;;;;;;10.95;1.00;;;20.00;70.50;;;;;;5073941;28;20113;-50
2022/05/12 12:40:32;;;;;;;;;;;20.10;72.90;;;;;;5072633;28;20037;-53
2022/05/12 12:43:10;;;;;;;;;;;20.20;72.00;;;;;;5076556;28;20006;-52
2022/05/12 12:45:35;;;;;;;;;;;20.20;68.70;;;;;;5084277;28;19961;-51
2022/05/12 12:48:15;;;;;;;2.78;0.63;;;20.20;70.20;;;;;;5075778;28;19920;-51
2022/05/12 12:50:46;;;;;;;7.22;1.15;;;20.20;67.70;;;;;;5073635;28;20036;-53
2022/05/12 12:56:32;;;;;;;1.80;0.40;;;20.30;69.60;;;;;;5072437;28;20053;-50
2022/05/12 12:59:12;;;;;;;2.50;0.47;;;20.30;70.40;;;;;;5071552;28;20482;-54
2022/05/12 13:01:52;;;;;;;6.57;0.80;;;20.20;70.00;;;;;;5082672;28;20044;-53
2022/05/12 13:04:27;;;;;;;5.03;0.50;;;20.20;70.00;;;;;;5074333;28;20041;-54
2022/05/12 13:06:59;;;;;;;4.25;0.60;;;20.20;68.80;;;;;;5084956;28;20079;-51
2022/05/12 13:09:29;;;;;;;2.83;0.57;;;20.10;68.40;;;;;;5081340;28;20040;-50
2022/05/12 13:12:16;;;;;;;1.63;0.35;;;20.10;67.20;;;;;;5072724;28;20043;-54
2022/05/12 13:14:43;;;;;;;1.48;0.40;;;20.10;66.70;;;;;;5086772;28;20126;-52
2022/05/12 13:17:18;;;;;;;1.23;0.30;;;20.20;67.80;;;;;;5074951;28;20505;-53
2022/05/12 13:19:45;;;;;;;1.48;0.57;;;20.20;66.90;;;;;;5075627;28;20494;-54
2022/05/12 13:22:21;;;;;;;4.15;0.40;;;20.20;65.70;;;;;;5071082;28;20032;-56
2022/05/12 13:24:47;;;;;;;2.65;0.40;;;20.20;67.30;;;;;;5066230;28;20037;-51
2022/05/12 13:27:14;;;;;;;;;;;20.30;66.80;;;;;;5067975;28;20043;-52
2022/05/12 13:29:41;;;;;;;;;;;20.30;67.10;;;;;;5083296;28;19970;-53